sensor_id;sensor_type;location;lat;lon;timestamp;pressure;altitude;pressure_sealevel;temperature;humidity
58785;BME280;44557;51.862;19.378;2022-11-15T00:00:17;99603.35;;;4.70;100.00
58785;BME280;44557;51.862;19.378;2022-11-15T00:01:37;99602.71;;;4.69;100.00
58785;BME280;44557;51.862;19.378;2022-11-15T00:02:39;99598.61;;;4.67;100.00
58785;BME280;44557;51.862;19.378;2022-11-15T00:03:40;99596.16;;;4.70;100.00
58785;BME280;44557;51.862;19.378;2022-11-15T00:04:40;99597.80;;;4.75;100.00
58785;BME280;44557;51.862;19.378;2022-11-15T00:05:41;99598.38;;;4.76;100.00
58785;BME280;44557;51.862;19.378;2022-11-15T00:06:42;99592.84;;;4.78;100.00
58785;BME280;44557;51.862;19.378;2022-11-15T00:07:43;99590.41;;;4.79;100.00
58785;BME280;44557;51.862;19.378;2022-11-15T00:08:44;99592.58;;;4.80;100.00
58785;BME280;44557;51.862;19.378;2022-11-15T00:09:45;99589.90;;;4.80;100.00
58785;BME280;44557;51.862;19.378;2022-11-15T00:10:56;99589.56;;;4.83;100.00
58785;BME280;44557;51.862;19.378;2022-11-15T00:11:57;99594.11;;;4.80;100.00
58785;BME280;44557;51.862;19.378;2022-11-15T00:12:58;99588.58;;;4.82;100.00
58785;BME280;44557;51.862;19.378;2022-11-15T00:13:59;99591.41;;;4.83;100.00
58785;BME280;44557;51.862;19.378;2022-11-15T00:15:03;99589.74;;;4.82;100.00
58785;BME280;44557;51.862;19.378;2022-11-15T00:16:04;99586.60;;;4.81;100.00
58785;BME280;44557;51.862;19.378;2022-11-15T00:17:05;99590.70;;;4.83;100.00
58785;BME280;44557;51.862;19.378;2022-11-15T00:18:14;99584.17;;;4.85;100.00
58785;BME280;44557;51.862;19.378;2022-11-15T00:19:18;99583.73;;;4.78;100.00
58785;BME280;44557;51.862;19.378;2022-11-15T00:20:19;99581.63;;;4.78;100.00
58785;BME280;44557;51.862;19.378;2022-11-15T00:21:20;99586.64;;;4.76;100.00
58785;BME280;44557;51.862;19.378;2022-11-15T00:22:21;99580.36;;;4.79;100.00
58785;BME280;44557;51.862;19.378;2022-11-15T00:23:22;99579.84;;;4.78;100.00
58785;BME280;44557;51.862;19.378;2022-11-15T00:24:23;99579.88;;;4.79;100.00
58785;BME280;44557;51.862;19.378;2022-11-15T00:25:26;99575.51;;;4.73;100.00
58785;BME280;44557;51.862;19.378;2022-11-15T00:26:27;99574.88;;;4.75;100.00
58785;BME280;44557;51.862;19.378;2022-11-15T00:27:28;99572.25;;;4.75;100.00
58785;BME280;44557;51.862;19.378;2022-11-15T00:28:29;99572.10;;;4.78;100.00
58785;BME280;44557;51.862;19.378;2022-11-15T00:29:30;99574.41;;;4.73;100.00
58785;BME280;44557;51.862;19.378;2022-11-15T00:30:32;99572.81;;;4.74;100.00
58785;BME280;44557;51.862;19.378;2022-11-15T00:31:33;99566.08;;;4.75;100.00
58785;BME280;44557;51.862;19.378;2022-11-15T00:32:33;99566.09;;;4.75;100.00
58785;BME280;44557;51.862;19.378;2022-11-15T00:33:34;99566.95;;;4.73;100.00
58785;BME280;44557;51.862;19.378;2022-11-15T00:34:36;99568.64;;;4.71;100.00
58785;BME280;44557;51.862;19.378;2022-11-15T00:35:37;99562.62;;;4.72;100.00
58785;BME280;44557;51.862;19.378;2022-11-15T00:36:37;99565.17;;;4.74;100.00
58785;BME280;44557;51.862;19.378;2022-11-15T00:37:39;99563.09;;;4.72;100.00
58785;BME280;44557;51.862;19.378;2022-11-15T00:38:40;99560.19;;;4.70;100.00
58785;BME280;44557;51.862;19.378;2022-11-15T00:39:41;99559.65;;;4.73;100.00
58785;BME280;44557;51.862;19.378;2022-11-15T00:40:42;99560.86;;;4.72;100.00
58785;BME280;44557;51.862;19.378;2022-11-15T00:41:43;99560.27;;;4.72;100.00
58785;BME280;44557;51.862;19.378;2022-11-15T00:42:44;99555.70;;;4.76;100.00
58785;BME280;44557;51.862;19.378;2022-11-15T00:43:45;99558.52;;;4.75;100.00
58785;BME280;44557;51.862;19.378;2022-11-15T00:44:45;99558.60;;;4.78;100.00
58785;BME280;44557;51.862;19.378;2022-11-15T00:45:46;99558.38;;;4.75;100.00
58785;BME280;44557;51.862;19.378;2022-11-15T00:46:47;99561.46;;;4.72;100.00
58785;BME280;44557;51.862;19.378;2022-11-15T00:47:48;99556.95;;;4.74;100.00
58785;BME280;44557;51.862;19.378;2022-11-15T00:48:49;99551.54;;;4.77;100.00
58785;BME280;44557;51.862;19.378;2022-11-15T00:49:50;99554.09;;;4.75;100.00
58785;BME280;44557;51.862;19.378;2022-11-15T00:50:51;99550.70;;;4.69;100.00
58785;BME280;44557;51.862;19.378;2022-11-15T00:51:52;99549.34;;;4.67;100.00
58785;BME280;44557;51.862;19.378;2022-11-15T00:52:53;99552.58;;;4.63;100.00
58785;BME280;44557;51.862;19.378;2022-11-15T00:53:53;99551.69;;;4.63;100.00
58785;BME280;44557;51.862;19.378;2022-11-15T00:54:54;99553.27;;;4.67;100.00
58785;BME280;44557;51.862;19.378;2022-11-15T00:55:55;99549.86;;;4.65;100.00
58785;BME280;44557;51.862;19.378;2022-11-15T00:56:56;99550.12;;;4.66;100.00
58785;BME280;44557;51.862;19.378;2022-11-15T00:57:57;99547.61;;;4.66;100.00
58785;BME280;44557;51.862;19.378;2022-11-15T00:58:58;99546.92;;;4.62;100.00
58785;BME280;44557;51.862;19.378;2022-11-15T00:59:59;99542.78;;;4.64;100.00
58785;BME280;44557;51.862;19.378;2022-11-15T01:01:11;99540.39;;;4.64;100.00
58785;BME280;44557;51.862;19.378;2022-11-15T01:02:12;99541.15;;;4.62;100.00
58785;BME280;44557;51.862;19.378;2022-11-15T01:03:14;99539.15;;;4.61;100.00
58785;BME280;44557;51.862;19.378;2022-11-15T01:04:14;99536.72;;;4.62;100.00
58785;BME280;44557;51.862;19.378;2022-11-15T01:05:16;99535.39;;;4.61;100.00
58785;BME280;44557;51.862;19.378;2022-11-15T01:06:17;99533.52;;;4.61;100.00
58785;BME280;44557;51.862;19.378;2022-11-15T01:07:18;99530.91;;;4.60;100.00
58785;BME280;44557;51.862;19.378;2022-11-15T01:08:19;99527.70;;;4.60;100.00
58785;BME280;44557;51.862;19.378;2022-11-15T01:09:20;99528.88;;;4.64;100.00
58785;BME280;44557;51.862;19.378;2022-11-15T01:10:24;99527.08;;;4.67;100.00
58785;BME280;44557;51.862;19.378;2022-11-15T01:11:26;99523.88;;;4.63;100.00
58785;BME280;44557;51.862;19.378;2022-11-15T01:12:27;99523.06;;;4.60;100.00
58785;BME280;44557;51.862;19.378;2022-11-15T01:13:32;99523.91;;;4.58;100.00
58785;BME280;44557;51.862;19.378;2022-11-15T01:14:34;99517.89;;;4.57;100.00
58785;BME280;44557;51.862;19.378;2022-11-15T01:15:39;99515.80;;;4.60;100.00
58785;BME280;44557;51.862;19.378;2022-11-15T01:16:40;99512.43;;;4.57;100.00
58785;BME280;44557;51.862;19.378;2022-11-15T01:17:41;99510.67;;;4.52;100.00
58785;BME280;44557;51.862;19.378;2022-11-15T01:18:42;99512.13;;;4.59;100.00
58785;BME280;44557;51.862;19.378;2022-11-15T01:19:43;99511.71;;;4.65;100.00
58785;BME280;44557;51.862;19.378;2022-11-15T01:20:44;99507.88;;;4.64;100.00
58785;BME280;44557;51.862;19.378;2022-11-15T01:21:48;99507.38;;;4.64;100.00
58785;BME280;44557;51.862;19.378;2022-11-15T01:22:50;99505.58;;;4.61;100.00
58785;BME280;44557;51.862;19.378;2022-11-15T01:23:59;99508.36;;;4.58;100.00
58785;BME280;44557;51.862;19.378;2022-11-15T01:25:00;99507.30;;;4.59;100.00
58785;BME280;44557;51.862;19.378;2022-11-15T01:26:03;99505.46;;;4.62;100.00
58785;BME280;44557;51.862;19.378;2022-11-15T01:27:05;99507.91;;;4.64;100.00
58785;BME280;44557;51.862;19.378;2022-11-15T01:28:05;99506.02;;;4.61;100.00
58785;BME280;44557;51.862;19.378;2022-11-15T01:29:06;99505.96;;;4.58;100.00
58785;BME280;44557;51.862;19.378;2022-11-15T01:30:08;99504.27;;;4.59;100.00
58785;BME280;44557;51.862;19.378;2022-11-15T01:31:16;99505.16;;;4.62;100.00
58785;BME280;44557;51.862;19.378;2022-11-15T01:32:18;99501.96;;;4.57;100.00
58785;BME280;44557;51.862;19.378;2022-11-15T01:33:20;99500.85;;;4.61;100.00
58785;BME280;44557;51.862;19.378;2022-11-15T01:34:21;99504.87;;;4.61;100.00
58785;BME280;44557;51.862;19.378;2022-11-15T01:35:21;99500.42;;;4.62;100.00
58785;BME280;44557;51.862;19.378;2022-11-15T01:36:22;99503.95;;;4.61;100.00
58785;BME280;44557;51.862;19.378;2022-11-15T01:37:23;99500.25;;;4.62;100.00
58785;BME280;44557;51.862;19.378;2022-11-15T01:38:24;99502.52;;;4.64;100.00
58785;BME280;44557;51.862;19.378;2022-11-15T01:39:25;99502.55;;;4.63;100.00
58785;BME280;44557;51.862;19.378;2022-11-15T01:40:27;99503.92;;;4.62;100.00
58785;BME280;44557;51.862;19.378;2022-11-15T01:41:30;99499.67;;;4.62;100.00
58785;BME280;44557;51.862;19.378;2022-11-15T01:42:32;99494.72;;;4.66;100.00
58785;BME280;44557;51.862;19.378;2022-11-15T01:43:35;99497.09;;;4.63;100.00
58785;BME280;44557;51.862;19.378;2022-11-15T01:44:51;99492.63;;;4.61;100.00
58785;BME280;44557;51.862;19.378;2022-11-15T01:46:04;99489.52;;;4.64;100.00
58785;BME280;44557;51.862;19.378;2022-11-15T01:48:52;99485.61;;;4.59;100.00
58785;BME280;44557;51.862;19.378;2022-11-15T01:50:03;99483.96;;;4.59;100.00
58785;BME280;44557;51.862;19.378;2022-11-15T01:51:07;99480.14;;;4.54;100.00
58785;BME280;44557;51.862;19.378;2022-11-15T01:52:14;99479.56;;;4.60;100.00
58785;BME280;44557;51.862;19.378;2022-11-15T01:53:19;99478.02;;;4.54;100.00
58785;BME280;44557;51.862;19.378;2022-11-15T01:54:23;99474.91;;;4.51;100.00
58785;BME280;44557;51.862;19.378;2022-11-15T01:55:26;99474.33;;;4.53;100.00
58785;BME280;44557;51.862;19.378;2022-11-15T01:56:31;99467.95;;;4.52;100.00
58785;BME280;44557;51.862;19.378;2022-11-15T01:57:34;99473.27;;;4.51;100.00
58785;BME280;44557;51.862;19.378;2022-11-15T01:58:35;99467.39;;;4.50;100.00
58785;BME280;44557;51.862;19.378;2022-11-15T01:59:40;99466.22;;;4.52;100.00
58785;BME280;44557;51.862;19.378;2022-11-15T02:00:42;99469.33;;;4.60;100.00
58785;BME280;44557;51.862;19.378;2022-11-15T02:01:43;99467.86;;;4.56;100.00
58785;BME280;44557;51.862;19.378;2022-11-15T02:02:44;99468.09;;;4.62;100.00
58785;BME280;44557;51.862;19.378;2022-11-15T02:03:51;99465.50;;;4.60;100.00
58785;BME280;44557;51.862;19.378;2022-11-15T02:04:54;99466.16;;;4.62;100.00
58785;BME280;44557;51.862;19.378;2022-11-15T02:05:55;99466.70;;;4.57;100.00
58785;BME280;44557;51.862;19.378;2022-11-15T02:06:56;99468.43;;;4.63;100.00
58785;BME280;44557;51.862;19.378;2022-11-15T02:07:57;99468.44;;;4.64;100.00
58785;BME280;44557;51.862;19.378;2022-11-15T02:08:58;99466.30;;;4.61;100.00
58785;BME280;44557;51.862;19.378;2022-11-15T02:10:13;99462.98;;;4.58;100.00
58785;BME280;44557;51.862;19.378;2022-11-15T02:11:15;99463.31;;;4.63;100.00
58785;BME280;44557;51.862;19.378;2022-11-15T02:12:19;99461.30;;;4.62;100.00
58785;BME280;44557;51.862;19.378;2022-11-15T02:13:21;99463.98;;;4.60;100.00
58785;BME280;44557;51.862;19.378;2022-11-15T02:14:25;99460.45;;;4.59;100.00
58785;BME280;44557;51.862;19.378;2022-11-15T02:15:40;99463.78;;;4.60;100.00
58785;BME280;44557;51.862;19.378;2022-11-15T02:17:02;99460.95;;;4.61;100.00
58785;BME280;44557;51.862;19.378;2022-11-15T02:18:37;99461.73;;;4.60;100.00
58785;BME280;44557;51.862;19.378;2022-11-15T02:21:23;99458.45;;;4.56;100.00
58785;BME280;44557;51.862;19.378;2022-11-15T02:23:06;99456.68;;;4.57;100.00
58785;BME280;44557;51.862;19.378;2022-11-15T02:25:41;99456.67;;;4.60;100.00
58785;BME280;44557;51.862;19.378;2022-11-15T02:31:14;99455.23;;;4.57;100.00
58785;BME280;44557;51.862;19.378;2022-11-15T02:32:24;99453.41;;;4.54;100.00
58785;BME280;44557;51.862;19.378;2022-11-15T02:36:02;99453.84;;;4.52;100.00
58785;BME280;44557;51.862;19.378;2022-11-15T02:38:33;99449.56;;;4.58;100.00
58785;BME280;44557;51.862;19.378;2022-11-15T02:41:09;99453.11;;;4.58;100.00
58785;BME280;44557;51.862;19.378;2022-11-15T02:42:14;99449.92;;;4.58;100.00
58785;BME280;44557;51.862;19.378;2022-11-15T02:43:43;99446.13;;;4.55;100.00
58785;BME280;44557;51.862;19.378;2022-11-15T02:45:03;99444.65;;;4.61;100.00
58785;BME280;44557;51.862;19.378;2022-11-15T02:46:21;99445.73;;;4.59;100.00
58785;BME280;44557;51.862;19.378;2022-11-15T02:47:24;99444.33;;;4.58;100.00
58785;BME280;44557;51.862;19.378;2022-11-15T02:48:28;99441.20;;;4.59;100.00
58785;BME280;44557;51.862;19.378;2022-11-15T02:49:33;99440.41;;;4.60;100.00
58785;BME280;44557;51.862;19.378;2022-11-15T02:50:35;99440.48;;;4.61;100.00
58785;BME280;44557;51.862;19.378;2022-11-15T02:51:36;99443.15;;;4.61;100.00
58785;BME280;44557;51.862;19.378;2022-11-15T02:52:37;99442.30;;;4.60;100.00
58785;BME280;44557;51.862;19.378;2022-11-15T02:53:38;99439.01;;;4.61;100.00
58785;BME280;44557;51.862;19.378;2022-11-15T02:54:39;99436.92;;;4.64;100.00
58785;BME280;44557;51.862;19.378;2022-11-15T02:55:49;99443.40;;;4.60;100.00
58785;BME280;44557;51.862;19.378;2022-11-15T02:56:58;99437.98;;;4.64;100.00
58785;BME280;44557;51.862;19.378;2022-11-15T03:00:47;99434.05;;;4.59;100.00
58785;BME280;44557;51.862;19.378;2022-11-15T03:03:20;99433.54;;;4.60;100.00
58785;BME280;44557;51.862;19.378;2022-11-15T03:06:15;99433.42;;;4.58;100.00
58785;BME280;44557;51.862;19.378;2022-11-15T03:07:35;99428.88;;;4.59;100.00
58785;BME280;44557;51.862;19.378;2022-11-15T03:08:57;99429.30;;;4.56;100.00
58785;BME280;44557;51.862;19.378;2022-11-15T03:10:12;99429.20;;;4.59;100.00
58785;BME280;44557;51.862;19.378;2022-11-15T03:11:21;99431.13;;;4.56;100.00
58785;BME280;44557;51.862;19.378;2022-11-15T03:13:33;99424.06;;;4.62;100.00
58785;BME280;44557;51.862;19.378;2022-11-15T03:14:59;99426.55;;;4.63;100.00
58785;BME280;44557;51.862;19.378;2022-11-15T03:16:15;99431.77;;;4.59;100.00
58785;BME280;44557;51.862;19.378;2022-11-15T03:17:31;99424.00;;;4.49;100.00
58785;BME280;44557;51.862;19.378;2022-11-15T03:18:43;99423.73;;;4.49;100.00
58785;BME280;44557;51.862;19.378;2022-11-15T03:19:48;99421.89;;;4.53;100.00
58785;BME280;44557;51.862;19.378;2022-11-15T03:20:52;99421.55;;;4.52;100.00
58785;BME280;44557;51.862;19.378;2022-11-15T03:21:55;99422.85;;;4.50;100.00
58785;BME280;44557;51.862;19.378;2022-11-15T03:23:03;99417.05;;;4.50;100.00
58785;BME280;44557;51.862;19.378;2022-11-15T03:24:06;99414.50;;;4.47;100.00
58785;BME280;44557;51.862;19.378;2022-11-15T03:25:12;99415.36;;;4.48;100.00
58785;BME280;44557;51.862;19.378;2022-11-15T03:26:16;99414.81;;;4.43;100.00
58785;BME280;44557;51.862;19.378;2022-11-15T03:27:22;99412.61;;;4.44;100.00
58785;BME280;44557;51.862;19.378;2022-11-15T03:28:32;99412.02;;;4.41;100.00
58785;BME280;44557;51.862;19.378;2022-11-15T03:29:43;99410.11;;;4.43;100.00
58785;BME280;44557;51.862;19.378;2022-11-15T03:30:46;99412.48;;;4.47;100.00
58785;BME280;44557;51.862;19.378;2022-11-15T03:31:57;99413.39;;;4.45;100.00
58785;BME280;44557;51.862;19.378;2022-11-15T03:33:00;99416.36;;;4.47;100.00
58785;BME280;44557;51.862;19.378;2022-11-15T03:34:05;99415.17;;;4.49;100.00
58785;BME280;44557;51.862;19.378;2022-11-15T03:35:11;99410.48;;;4.52;100.00
58785;BME280;44557;51.862;19.378;2022-11-15T03:36:14;99408.11;;;4.48;100.00
58785;BME280;44557;51.862;19.378;2022-11-15T03:37:17;99407.63;;;4.45;100.00
58785;BME280;44557;51.862;19.378;2022-11-15T03:38:24;99409.10;;;4.52;100.00
58785;BME280;44557;51.862;19.378;2022-11-15T03:39:26;99406.55;;;4.47;100.00
58785;BME280;44557;51.862;19.378;2022-11-15T03:40:38;99408.81;;;4.50;100.00
58785;BME280;44557;51.862;19.378;2022-11-15T03:41:47;99406.09;;;4.50;100.00
58785;BME280;44557;51.862;19.378;2022-11-15T03:44:10;99410.33;;;4.43;100.00
58785;BME280;44557;51.862;19.378;2022-11-15T03:45:17;99409.74;;;4.45;100.00
58785;BME280;44557;51.862;19.378;2022-11-15T03:47:39;99406.13;;;4.41;100.00
58785;BME280;44557;51.862;19.378;2022-11-15T03:48:48;99404.45;;;4.40;100.00
58785;BME280;44557;51.862;19.378;2022-11-15T03:49:57;99401.36;;;4.44;100.00
58785;BME280;44557;51.862;19.378;2022-11-15T03:51:00;99397.62;;;4.46;100.00
58785;BME280;44557;51.862;19.378;2022-11-15T03:52:03;99394.95;;;4.46;100.00
58785;BME280;44557;51.862;19.378;2022-11-15T03:53:05;99393.20;;;4.48;100.00
58785;BME280;44557;51.862;19.378;2022-11-15T03:54:06;99390.48;;;4.46;100.00
58785;BME280;44557;51.862;19.378;2022-11-15T03:55:11;99386.75;;;4.41;100.00
58785;BME280;44557;51.862;19.378;2022-11-15T03:56:13;99392.20;;;4.47;100.00
58785;BME280;44557;51.862;19.378;2022-11-15T03:57:14;99387.90;;;4.43;100.00
58785;BME280;44557;51.862;19.378;2022-11-15T03:58:15;99388.98;;;4.42;100.00
58785;BME280;44557;51.862;19.378;2022-11-15T03:59:16;99386.48;;;4.41;100.00
58785;BME280;44557;51.862;19.378;2022-11-15T04:00:17;99384.27;;;4.50;100.00
58785;BME280;44557;51.862;19.378;2022-11-15T04:01:18;99384.64;;;4.51;100.00
58785;BME280;44557;51.862;19.378;2022-11-15T04:02:19;99383.33;;;4.48;100.00
58785;BME280;44557;51.862;19.378;2022-11-15T04:03:20;99384.30;;;4.43;100.00
58785;BME280;44557;51.862;19.378;2022-11-15T04:04:21;99384.79;;;4.46;100.00
58785;BME280;44557;51.862;19.378;2022-11-15T04:05:22;99384.23;;;4.49;100.00
58785;BME280;44557;51.862;19.378;2022-11-15T04:06:23;99380.16;;;4.48;100.00
58785;BME280;44557;51.862;19.378;2022-11-15T04:07:24;99382.27;;;4.52;100.00
58785;BME280;44557;51.862;19.378;2022-11-15T04:08:24;99375.90;;;4.49;100.00
58785;BME280;44557;51.862;19.378;2022-11-15T04:09:25;99377.95;;;4.47;100.00
58785;BME280;44557;51.862;19.378;2022-11-15T04:10:26;99375.13;;;4.52;100.00
58785;BME280;44557;51.862;19.378;2022-11-15T04:11:27;99377.58;;;4.51;100.00
58785;BME280;44557;51.862;19.378;2022-11-15T04:12:40;99376.98;;;4.52;100.00
58785;BME280;44557;51.862;19.378;2022-11-15T04:13:43;99375.23;;;4.47;100.00
58785;BME280;44557;51.862;19.378;2022-11-15T04:14:44;99371.37;;;4.49;100.00
58785;BME280;44557;51.862;19.378;2022-11-15T04:16:05;99369.18;;;4.44;100.00
58785;BME280;44557;51.862;19.378;2022-11-15T04:17:06;99367.09;;;4.43;100.00
58785;BME280;44557;51.862;19.378;2022-11-15T04:18:07;99369.30;;;4.48;100.00
58785;BME280;44557;51.862;19.378;2022-11-15T04:19:08;99370.52;;;4.48;100.00
58785;BME280;44557;51.862;19.378;2022-11-15T04:20:29;99368.97;;;4.46;100.00
58785;BME280;44557;51.862;19.378;2022-11-15T04:21:49;99367.82;;;4.47;100.00
58785;BME280;44557;51.862;19.378;2022-11-15T04:23:14;99368.31;;;4.49;100.00
58785;BME280;44557;51.862;19.378;2022-11-15T04:24:34;99365.95;;;4.45;100.00
58785;BME280;44557;51.862;19.378;2022-11-15T04:25:34;99366.18;;;4.40;100.00
58785;BME280;44557;51.862;19.378;2022-11-15T04:26:35;99364.87;;;4.40;100.00
58785;BME280;44557;51.862;19.378;2022-11-15T04:27:36;99361.95;;;4.38;100.00
58785;BME280;44557;51.862;19.378;2022-11-15T04:28:37;99360.16;;;4.38;100.00
58785;BME280;44557;51.862;19.378;2022-11-15T04:29:59;99361.18;;;4.41;100.00
58785;BME280;44557;51.862;19.378;2022-11-15T04:30:59;99361.10;;;4.42;100.00
58785;BME280;44557;51.862;19.378;2022-11-15T04:32:05;99360.90;;;4.49;100.00
58785;BME280;44557;51.862;19.378;2022-11-15T04:33:07;99359.01;;;4.52;100.00
58785;BME280;44557;51.862;19.378;2022-11-15T04:34:08;99359.73;;;4.57;100.00
58785;BME280;44557;51.862;19.378;2022-11-15T04:35:09;99359.56;;;4.54;100.00
58785;BME280;44557;51.862;19.378;2022-11-15T04:36:10;99359.48;;;4.51;100.00
58785;BME280;44557;51.862;19.378;2022-11-15T04:37:29;99362.68;;;4.49;100.00
58785;BME280;44557;51.862;19.378;2022-11-15T04:38:31;99359.55;;;4.51;100.00
58785;BME280;44557;51.862;19.378;2022-11-15T04:39:31;99360.16;;;4.48;100.00
58785;BME280;44557;51.862;19.378;2022-11-15T04:40:33;99354.60;;;4.47;100.00
58785;BME280;44557;51.862;19.378;2022-11-15T04:41:34;99353.81;;;4.43;100.00
58785;BME280;44557;51.862;19.378;2022-11-15T04:42:35;99353.55;;;4.48;100.00
58785;BME280;44557;51.862;19.378;2022-11-15T04:43:36;99353.77;;;4.50;100.00
58785;BME280;44557;51.862;19.378;2022-11-15T04:44:37;99356.39;;;4.53;100.00
58785;BME280;44557;51.862;19.378;2022-11-15T04:45:38;99355.79;;;4.51;100.00
58785;BME280;44557;51.862;19.378;2022-11-15T04:46:39;99355.65;;;4.56;100.00
58785;BME280;44557;51.862;19.378;2022-11-15T04:47:41;99356.98;;;4.53;100.00
58785;BME280;44557;51.862;19.378;2022-11-15T04:48:43;99356.04;;;4.53;100.00
58785;BME280;44557;51.862;19.378;2022-11-15T04:49:44;99353.30;;;4.52;100.00
58785;BME280;44557;51.862;19.378;2022-11-15T04:50:48;99355.66;;;4.55;100.00
58785;BME280;44557;51.862;19.378;2022-11-15T04:51:49;99352.98;;;4.53;100.00
58785;BME280;44557;51.862;19.378;2022-11-15T04:52:53;99348.60;;;4.51;100.00
58785;BME280;44557;51.862;19.378;2022-11-15T04:53:54;99350.41;;;4.52;100.00
58785;BME280;44557;51.862;19.378;2022-11-15T04:54:55;99346.84;;;4.48;100.00
58785;BME280;44557;51.862;19.378;2022-11-15T04:55:56;99343.02;;;4.51;100.00
58785;BME280;44557;51.862;19.378;2022-11-15T04:56:57;99341.79;;;4.54;100.00
58785;BME280;44557;51.862;19.378;2022-11-15T04:58:01;99343.92;;;4.59;100.00
58785;BME280;44557;51.862;19.378;2022-11-15T04:59:02;99345.29;;;4.54;100.00
58785;BME280;44557;51.862;19.378;2022-11-15T05:00:09;99341.45;;;4.52;100.00
58785;BME280;44557;51.862;19.378;2022-11-15T05:01:12;99343.02;;;4.51;100.00
58785;BME280;44557;51.862;19.378;2022-11-15T05:02:15;99336.63;;;4.49;100.00
58785;BME280;44557;51.862;19.378;2022-11-15T05:03:16;99339.48;;;4.50;100.00
58785;BME280;44557;51.862;19.378;2022-11-15T05:04:35;99338.07;;;4.48;100.00
58785;BME280;44557;51.862;19.378;2022-11-15T05:05:37;99338.61;;;4.45;100.00
58785;BME280;44557;51.862;19.378;2022-11-15T05:06:37;99341.21;;;4.46;100.00
58785;BME280;44557;51.862;19.378;2022-11-15T05:07:38;99337.80;;;4.41;100.00
58785;BME280;44557;51.862;19.378;2022-11-15T05:08:39;99344.27;;;4.39;100.00
58785;BME280;44557;51.862;19.378;2022-11-15T05:09:40;99344.26;;;4.42;100.00
58785;BME280;44557;51.862;19.378;2022-11-15T05:10:41;99346.14;;;4.41;100.00
58785;BME280;44557;51.862;19.378;2022-11-15T05:11:42;99349.21;;;4.24;100.00
58785;BME280;44557;51.862;19.378;2022-11-15T05:12:43;99346.48;;;4.14;100.00
58785;BME280;44557;51.862;19.378;2022-11-15T05:13:44;99345.67;;;4.14;100.00
58785;BME280;44557;51.862;19.378;2022-11-15T05:14:45;99351.20;;;4.10;100.00
58785;BME280;44557;51.862;19.378;2022-11-15T05:15:47;99352.23;;;4.10;100.00
58785;BME280;44557;51.862;19.378;2022-11-15T05:16:48;99351.94;;;4.06;100.00
58785;BME280;44557;51.862;19.378;2022-11-15T05:17:48;99349.57;;;4.02;100.00
58785;BME280;44557;51.862;19.378;2022-11-15T05:18:53;99350.16;;;3.94;100.00
58785;BME280;44557;51.862;19.378;2022-11-15T05:19:54;99348.06;;;3.82;100.00
58785;BME280;44557;51.862;19.378;2022-11-15T05:20:55;99347.75;;;3.62;100.00
58785;BME280;44557;51.862;19.378;2022-11-15T05:21:56;99349.98;;;3.54;100.00
58785;BME280;44557;51.862;19.378;2022-11-15T05:22:57;99354.48;;;3.66;100.00
58785;BME280;44557;51.862;19.378;2022-11-15T05:23:58;99355.23;;;3.70;100.00
58785;BME280;44557;51.862;19.378;2022-11-15T05:24:59;99352.62;;;4.05;100.00
58785;BME280;44557;51.862;19.378;2022-11-15T05:26:01;99354.48;;;4.14;100.00
58785;BME280;44557;51.862;19.378;2022-11-15T05:27:02;99348.27;;;4.20;100.00
58785;BME280;44557;51.862;19.378;2022-11-15T05:28:03;99349.45;;;4.08;100.00
58785;BME280;44557;51.862;19.378;2022-11-15T05:29:04;99345.82;;;4.02;100.00
58785;BME280;44557;51.862;19.378;2022-11-15T05:30:05;99348.89;;;3.90;100.00
58785;BME280;44557;51.862;19.378;2022-11-15T05:31:09;99348.81;;;3.88;100.00
58785;BME280;44557;51.862;19.378;2022-11-15T05:32:11;99349.21;;;3.85;100.00
58785;BME280;44557;51.862;19.378;2022-11-15T05:33:12;99349.94;;;3.86;100.00
58785;BME280;44557;51.862;19.378;2022-11-15T05:34:13;99345.66;;;3.85;100.00
58785;BME280;44557;51.862;19.378;2022-11-15T05:35:30;99347.05;;;4.05;100.00
58785;BME280;44557;51.862;19.378;2022-11-15T05:36:37;99340.36;;;4.12;100.00
58785;BME280;44557;51.862;19.378;2022-11-15T05:37:38;99337.45;;;4.16;100.00
58785;BME280;44557;51.862;19.378;2022-11-15T05:38:39;99341.30;;;4.07;100.00
58785;BME280;44557;51.862;19.378;2022-11-15T05:39:40;99339.97;;;3.97;100.00
58785;BME280;44557;51.862;19.378;2022-11-15T05:40:41;99340.44;;;3.92;100.00
58785;BME280;44557;51.862;19.378;2022-11-15T05:42:12;99337.45;;;3.87;100.00
58785;BME280;44557;51.862;19.378;2022-11-15T05:43:13;99328.60;;;3.77;100.00
58785;BME280;44557;51.862;19.378;2022-11-15T05:44:17;99328.98;;;3.74;100.00
58785;BME280;44557;51.862;19.378;2022-11-15T05:45:18;99328.23;;;3.64;100.00
58785;BME280;44557;51.862;19.378;2022-11-15T05:46:20;99327.30;;;3.62;100.00
58785;BME280;44557;51.862;19.378;2022-11-15T05:47:24;99325.91;;;3.91;100.00
58785;BME280;44557;51.862;19.378;2022-11-15T05:48:26;99320.59;;;4.04;100.00
58785;BME280;44557;51.862;19.378;2022-11-15T05:49:31;99318.98;;;4.10;100.00
58785;BME280;44557;51.862;19.378;2022-11-15T05:50:36;99319.30;;;3.98;100.00
58785;BME280;44557;51.862;19.378;2022-11-15T05:51:39;99318.09;;;3.88;100.00
58785;BME280;44557;51.862;19.378;2022-11-15T05:52:42;99317.39;;;3.82;100.00
58785;BME280;44557;51.862;19.378;2022-11-15T05:53:44;99319.77;;;3.80;100.00
58785;BME280;44557;51.862;19.378;2022-11-15T05:54:46;99318.38;;;3.79;100.00
58785;BME280;44557;51.862;19.378;2022-11-15T05:55:47;99322.92;;;3.89;100.00
58785;BME280;44557;51.862;19.378;2022-11-15T05:56:48;99318.08;;;4.07;100.00
58785;BME280;44557;51.862;19.378;2022-11-15T05:57:50;99318.84;;;4.12;100.00
58785;BME280;44557;51.862;19.378;2022-11-15T05:58:53;99317.41;;;4.14;100.00
58785;BME280;44557;51.862;19.378;2022-11-15T05:59:55;99316.07;;;4.06;100.00